sensor_id;sensor_type;location;lat;lon;timestamp;P1;durP1;ratioP1;P2;durP2;ratioP2
19846;SDS011;10084;50.518;8.588;2023-03-21T00:00:44;1.70;;;1.20;;
19846;SDS011;10084;50.518;8.588;2023-03-21T00:03:12;1.73;;;1.40;;
19846;SDS011;10084;50.518;8.588;2023-03-21T00:05:42;1.40;;;1.20;;
19846;SDS011;10084;50.518;8.588;2023-03-21T00:08:13;1.17;;;1.00;;
19846;SDS011;10084;50.518;8.588;2023-03-21T00:10:40;1.40;;;0.90;;
19846;SDS011;10084;50.518;8.588;2023-03-21T00:13:06;4.77;;;1.27;;
19846;SDS011;10084;50.518;8.588;2023-03-21T00:15:32;4.27;;;1.37;;
19846;SDS011;10084;50.518;8.588;2023-03-21T00:17:58;1.70;;;1.30;;
19846;SDS011;10084;50.518;8.588;2023-03-21T00:20:31;3.07;;;1.13;;
19846;SDS011;10084;50.518;8.588;2023-03-21T00:22:59;1.67;;;1.57;;
19846;SDS011;10084;50.518;8.588;2023-03-21T00:25:26;2.27;;;1.60;;
19846;SDS011;10084;50.518;8.588;2023-03-21T00:27:52;1.50;;;1.30;;
19846;SDS011;10084;50.518;8.588;2023-03-21T00:30:20;2.33;;;0.97;;
19846;SDS011;10084;50.518;8.588;2023-03-21T00:32:48;1.00;;;0.93;;
19846;SDS011;10084;50.518;8.588;2023-03-21T00:35:14;1.13;;;1.03;;
19846;SDS011;10084;50.518;8.588;2023-03-21T00:37:40;3.00;;;0.93;;
19846;SDS011;10084;50.518;8.588;2023-03-21T00:40:09;3.80;;;0.90;;
19846;SDS011;10084;50.518;8.588;2023-03-21T00:42:35;2.40;;;1.20;;
19846;SDS011;10084;50.518;8.588;2023-03-21T00:45:03;6.13;;;1.23;;
19846;SDS011;10084;50.518;8.588;2023-03-21T00:47:31;0.97;;;0.93;;
19846;SDS011;10084;50.518;8.588;2023-03-21T00:49:57;1.90;;;1.30;;
19846;SDS011;10084;50.518;8.588;2023-03-21T00:52:23;1.37;;;0.80;;
19846;SDS011;10084;50.518;8.588;2023-03-21T00:54:50;1.43;;;0.80;;
19846;SDS011;10084;50.518;8.588;2023-03-21T00:57:16;1.37;;;0.90;;
19846;SDS011;10084;50.518;8.588;2023-03-21T00:59:42;1.57;;;1.10;;
19846;SDS011;10084;50.518;8.588;2023-03-21T01:02:09;1.90;;;0.90;;
19846;SDS011;10084;50.518;8.588;2023-03-21T01:04:38;5.63;;;1.00;;
19846;SDS011;10084;50.518;8.588;2023-03-21T01:07:05;5.40;;;1.07;;
19846;SDS011;10084;50.518;8.588;2023-03-21T01:09:31;1.80;;;0.87;;
19846;SDS011;10084;50.518;8.588;2023-03-21T01:11:57;1.53;;;1.20;;
19846;SDS011;10084;50.518;8.588;2023-03-21T01:14:23;1.93;;;1.17;;
19846;SDS011;10084;50.518;8.588;2023-03-21T01:16:52;1.10;;;0.90;;
19846;SDS011;10084;50.518;8.588;2023-03-21T01:19:19;0.80;;;0.80;;
19846;SDS011;10084;50.518;8.588;2023-03-21T01:21:46;2.07;;;1.30;;
19846;SDS011;10084;50.518;8.588;2023-03-21T01:24:12;2.70;;;1.30;;
19846;SDS011;10084;50.518;8.588;2023-03-21T01:26:38;1.23;;;0.80;;
19846;SDS011;10084;50.518;8.588;2023-03-21T01:29:04;1.73;;;0.90;;
19846;SDS011;10084;50.518;8.588;2023-03-21T01:31:31;1.17;;;0.97;;
19846;SDS011;10084;50.518;8.588;2023-03-21T01:33:57;3.33;;;1.00;;
19846;SDS011;10084;50.518;8.588;2023-03-21T01:36:24;1.30;;;1.20;;
19846;SDS011;10084;50.518;8.588;2023-03-21T01:38:54;1.13;;;0.87;;
19846;SDS011;10084;50.518;8.588;2023-03-21T01:41:25;3.33;;;1.20;;
19846;SDS011;10084;50.518;8.588;2023-03-21T01:43:52;0.97;;;0.83;;
19846;SDS011;10084;50.518;8.588;2023-03-21T01:46:38;1.50;;;0.97;;
19846;SDS011;10084;50.518;8.588;2023-03-21T01:51:37;0.90;;;0.70;;
19846;SDS011;10084;50.518;8.588;2023-03-21T01:54:04;5.07;;;1.10;;
19846;SDS011;10084;50.518;8.588;2023-03-21T01:56:33;1.00;;;0.73;;
19846;SDS011;10084;50.518;8.588;2023-03-21T01:59:06;0.80;;;0.70;;
19846;SDS011;10084;50.518;8.588;2023-03-21T02:02:03;5.17;;;1.20;;
19846;SDS011;10084;50.518;8.588;2023-03-21T02:04:33;0.83;;;0.83;;
19846;SDS011;10084;50.518;8.588;2023-03-21T02:07:14;0.83;;;0.80;;
19846;SDS011;10084;50.518;8.588;2023-03-21T02:09:54;1.00;;;0.90;;
19846;SDS011;10084;50.518;8.588;2023-03-21T02:12:22;2.10;;;0.70;;
19846;SDS011;10084;50.518;8.588;2023-03-21T02:14:49;2.43;;;1.03;;
19846;SDS011;10084;50.518;8.588;2023-03-21T02:22:53;3.70;;;0.73;;
19846;SDS011;10084;50.518;8.588;2023-03-21T02:27:56;1.70;;;1.13;;
19846;SDS011;10084;50.518;8.588;2023-03-21T02:30:48;0.70;;;0.70;;
19846;SDS011;10084;50.518;8.588;2023-03-21T02:38:54;4.20;;;0.90;;
19846;SDS011;10084;50.518;8.588;2023-03-21T02:41:35;6.07;;;0.97;;
19846;SDS011;10084;50.518;8.588;2023-03-21T02:44:14;1.37;;;0.70;;
19846;SDS011;10084;50.518;8.588;2023-03-21T02:46:44;1.20;;;0.80;;
19846;SDS011;10084;50.518;8.588;2023-03-21T02:51:39;5.33;;;0.97;;
19846;SDS011;10084;50.518;8.588;2023-03-21T02:54:08;2.20;;;0.80;;
19846;SDS011;10084;50.518;8.588;2023-03-21T02:56:35;2.23;;;1.00;;
19846;SDS011;10084;50.518;8.588;2023-03-21T02:59:03;3.77;;;0.80;;
19846;SDS011;10084;50.518;8.588;2023-03-21T03:01:31;0.60;;;0.60;;
19846;SDS011;10084;50.518;8.588;2023-03-21T03:03:57;1.30;;;1.00;;
19846;SDS011;10084;50.518;8.588;2023-03-21T03:06:26;1.60;;;0.70;;
19846;SDS011;10084;50.518;8.588;2023-03-21T03:11:27;1.83;;;1.40;;
19846;SDS011;10084;50.518;8.588;2023-03-21T03:14:00;2.00;;;0.80;;
19846;SDS011;10084;50.518;8.588;2023-03-21T03:19:19;6.93;;;0.90;;
19846;SDS011;10084;50.518;8.588;2023-03-21T03:21:48;1.30;;;1.00;;
19846;SDS011;10084;50.518;8.588;2023-03-21T03:24:19;4.83;;;1.33;;
19846;SDS011;10084;50.518;8.588;2023-03-21T03:29:14;1.37;;;0.80;;
19846;SDS011;10084;50.518;8.588;2023-03-21T03:31:46;2.30;;;1.10;;
19846;SDS011;10084;50.518;8.588;2023-03-21T03:34:18;1.53;;;0.97;;
19846;SDS011;10084;50.518;8.588;2023-03-21T03:36:47;1.67;;;0.90;;
19846;SDS011;10084;50.518;8.588;2023-03-21T03:39:16;1.27;;;1.00;;
19846;SDS011;10084;50.518;8.588;2023-03-21T03:41:56;1.93;;;1.13;;
19846;SDS011;10084;50.518;8.588;2023-03-21T03:44:28;3.20;;;0.87;;
19846;SDS011;10084;50.518;8.588;2023-03-21T03:49:38;3.63;;;0.97;;
19846;SDS011;10084;50.518;8.588;2023-03-21T03:52:53;0.80;;;0.80;;
19846;SDS011;10084;50.518;8.588;2023-03-21T03:56:02;1.50;;;0.90;;
19846;SDS011;10084;50.518;8.588;2023-03-21T03:59:00;0.87;;;0.83;;
19846;SDS011;10084;50.518;8.588;2023-03-21T04:02:24;7.73;;;0.93;;
19846;SDS011;10084;50.518;8.588;2023-03-21T04:05:33;1.60;;;0.70;;
19846;SDS011;10084;50.518;8.588;2023-03-21T04:08:43;0.50;;;0.50;;
19846;SDS011;10084;50.518;8.588;2023-03-21T04:11:32;0.80;;;0.70;;
19846;SDS011;10084;50.518;8.588;2023-03-21T04:13:59;1.03;;;0.97;;
19846;SDS011;10084;50.518;8.588;2023-03-21T04:16:25;3.30;;;0.70;;
19846;SDS011;10084;50.518;8.588;2023-03-21T04:18:52;2.50;;;0.77;;
19846;SDS011;10084;50.518;8.588;2023-03-21T04:22:03;2.37;;;0.93;;
19846;SDS011;10084;50.518;8.588;2023-03-21T04:25:02;1.53;;;1.10;;
19846;SDS011;10084;50.518;8.588;2023-03-21T04:27:40;3.33;;;0.77;;
19846;SDS011;10084;50.518;8.588;2023-03-21T04:30:34;2.83;;;0.90;;
19846;SDS011;10084;50.518;8.588;2023-03-21T04:33:25;2.80;;;1.07;;
19846;SDS011;10084;50.518;8.588;2023-03-21T04:36:35;2.43;;;0.63;;
19846;SDS011;10084;50.518;8.588;2023-03-21T04:39:45;8.33;;;1.20;;
19846;SDS011;10084;50.518;8.588;2023-03-21T04:42:57;5.73;;;1.07;;
19846;SDS011;10084;50.518;8.588;2023-03-21T04:46:11;1.07;;;0.77;;
19846;SDS011;10084;50.518;8.588;2023-03-21T04:48:40;2.10;;;0.80;;
19846;SDS011;10084;50.518;8.588;2023-03-21T04:51:07;0.80;;;0.70;;
19846;SDS011;10084;50.518;8.588;2023-03-21T04:53:33;2.17;;;1.00;;
19846;SDS011;10084;50.518;8.588;2023-03-21T04:55:59;2.83;;;1.00;;
19846;SDS011;10084;50.518;8.588;2023-03-21T04:58:28;2.13;;;0.80;;
19846;SDS011;10084;50.518;8.588;2023-03-21T05:01:07;2.13;;;1.00;;
19846;SDS011;10084;50.518;8.588;2023-03-21T05:03:38;1.00;;;0.90;;
19846;SDS011;10084;50.518;8.588;2023-03-21T05:06:08;1.37;;;0.93;;
19846;SDS011;10084;50.518;8.588;2023-03-21T05:08:35;1.37;;;1.00;;
19846;SDS011;10084;50.518;8.588;2023-03-21T05:11:01;1.70;;;0.70;;
19846;SDS011;10084;50.518;8.588;2023-03-21T05:13:28;1.90;;;0.90;;
19846;SDS011;10084;50.518;8.588;2023-03-21T05:15:54;1.30;;;1.07;;
19846;SDS011;10084;50.518;8.588;2023-03-21T05:18:21;10.67;;;1.20;;
19846;SDS011;10084;50.518;8.588;2023-03-21T05:20:59;2.10;;;0.77;;
19846;SDS011;10084;50.518;8.588;2023-03-21T05:23:25;1.37;;;1.07;;
19846;SDS011;10084;50.518;8.588;2023-03-21T05:25:56;7.70;;;0.93;;
19846;SDS011;10084;50.518;8.588;2023-03-21T05:28:51;0.93;;;0.73;;
19846;SDS011;10084;50.518;8.588;2023-03-21T05:31:18;1.93;;;1.00;;
19846;SDS011;10084;50.518;8.588;2023-03-21T05:33:47;4.83;;;0.97;;
19846;SDS011;10084;50.518;8.588;2023-03-21T05:36:16;3.40;;;1.07;;
19846;SDS011;10084;50.518;8.588;2023-03-21T05:38:43;1.87;;;0.97;;
19846;SDS011;10084;50.518;8.588;2023-03-21T05:41:11;2.60;;;1.10;;
19846;SDS011;10084;50.518;8.588;2023-03-21T05:43:37;1.93;;;1.20;;
19846;SDS011;10084;50.518;8.588;2023-03-21T05:46:04;3.90;;;1.70;;
19846;SDS011;10084;50.518;8.588;2023-03-21T05:48:30;2.03;;;1.00;;
19846;SDS011;10084;50.518;8.588;2023-03-21T05:51:06;1.10;;;0.90;;
19846;SDS011;10084;50.518;8.588;2023-03-21T05:53:33;1.30;;;0.83;;
19846;SDS011;10084;50.518;8.588;2023-03-21T05:55:59;1.70;;;0.80;;
19846;SDS011;10084;50.518;8.588;2023-03-21T05:58:47;3.50;;;1.30;;
19846;SDS011;10084;50.518;8.588;2023-03-21T06:01:13;1.10;;;1.00;;
19846;SDS011;10084;50.518;8.588;2023-03-21T06:03:44;1.77;;;1.13;;
19846;SDS011;10084;50.518;8.588;2023-03-21T06:06:21;3.07;;;1.10;;
19846;SDS011;10084;50.518;8.588;2023-03-21T06:08:53;0.80;;;0.73;;
19846;SDS011;10084;50.518;8.588;2023-03-21T06:11:22;4.20;;;1.10;;
19846;SDS011;10084;50.518;8.588;2023-03-21T06:13:52;3.47;;;1.03;;
19846;SDS011;10084;50.518;8.588;2023-03-21T06:16:21;1.27;;;0.80;;
19846;SDS011;10084;50.518;8.588;2023-03-21T06:18:47;4.40;;;1.10;;
19846;SDS011;10084;50.518;8.588;2023-03-21T06:21:29;1.43;;;0.90;;
19846;SDS011;10084;50.518;8.588;2023-03-21T06:23:55;2.87;;;1.43;;
19846;SDS011;10084;50.518;8.588;2023-03-21T06:26:21;3.77;;;1.33;;
19846;SDS011;10084;50.518;8.588;2023-03-21T06:28:49;2.30;;;1.60;;
19846;SDS011;10084;50.518;8.588;2023-03-21T06:31:15;3.30;;;1.70;;
19846;SDS011;10084;50.518;8.588;2023-03-21T06:33:42;3.40;;;2.43;;
19846;SDS011;10084;50.518;8.588;2023-03-21T06:36:08;2.53;;;2.33;;
19846;SDS011;10084;50.518;8.588;2023-03-21T06:38:34;2.00;;;1.57;;
19846;SDS011;10084;50.518;8.588;2023-03-21T06:41:03;1.77;;;1.43;;
19846;SDS011;10084;50.518;8.588;2023-03-21T06:43:32;6.27;;;1.50;;
19846;SDS011;10084;50.518;8.588;2023-03-21T06:46:01;1.73;;;1.57;;
19846;SDS011;10084;50.518;8.588;2023-03-21T06:48:27;10.27;;;2.53;;
19846;SDS011;10084;50.518;8.588;2023-03-21T06:50:54;5.20;;;2.10;;
19846;SDS011;10084;50.518;8.588;2023-03-21T06:53:23;2.17;;;1.80;;
19846;SDS011;10084;50.518;8.588;2023-03-21T06:56:29;5.33;;;1.77;;
19846;SDS011;10084;50.518;8.588;2023-03-21T06:58:56;4.20;;;1.63;;
19846;SDS011;10084;50.518;8.588;2023-03-21T07:01:42;1.50;;;1.23;;
19846;SDS011;10084;50.518;8.588;2023-03-21T07:04:08;1.30;;;1.20;;
19846;SDS011;10084;50.518;8.588;2023-03-21T07:06:36;3.90;;;1.57;;
19846;SDS011;10084;50.518;8.588;2023-03-21T07:09:02;7.23;;;1.50;;
19846;SDS011;10084;50.518;8.588;2023-03-21T07:11:31;2.37;;;1.20;;
19846;SDS011;10084;50.518;8.588;2023-03-21T07:13:57;5.67;;;1.40;;
19846;SDS011;10084;50.518;8.588;2023-03-21T07:16:23;2.17;;;1.80;;
19846;SDS011;10084;50.518;8.588;2023-03-21T07:18:50;3.07;;;1.57;;
19846;SDS011;10084;50.518;8.588;2023-03-21T07:21:16;1.87;;;1.50;;
19846;SDS011;10084;50.518;8.588;2023-03-21T07:23:43;6.53;;;2.20;;
19846;SDS011;10084;50.518;8.588;2023-03-21T07:26:08;2.43;;;1.90;;
19846;SDS011;10084;50.518;8.588;2023-03-21T07:28:34;4.47;;;2.70;;
19846;SDS011;10084;50.518;8.588;2023-03-21T07:31:01;2.83;;;2.00;;
19846;SDS011;10084;50.518;8.588;2023-03-21T07:33:29;6.80;;;2.60;;
19846;SDS011;10084;50.518;8.588;2023-03-21T07:35:58;10.57;;;2.23;;
19846;SDS011;10084;50.518;8.588;2023-03-21T07:38:25;2.83;;;2.50;;
19846;SDS011;10084;50.518;8.588;2023-03-21T07:40:51;2.63;;;2.13;;
19846;SDS011;10084;50.518;8.588;2023-03-21T07:43:18;4.83;;;2.03;;
19846;SDS011;10084;50.518;8.588;2023-03-21T07:45:44;4.83;;;2.37;;
19846;SDS011;10084;50.518;8.588;2023-03-21T07:48:12;2.97;;;2.30;;
19846;SDS011;10084;50.518;8.588;2023-03-21T07:50:39;3.07;;;2.43;;
19846;SDS011;10084;50.518;8.588;2023-03-21T07:53:05;3.53;;;2.43;;
19846;SDS011;10084;50.518;8.588;2023-03-21T07:55:34;2.63;;;2.30;;
19846;SDS011;10084;50.518;8.588;2023-03-21T07:58:02;2.50;;;2.07;;
19846;SDS011;10084;50.518;8.588;2023-03-21T08:00:28;6.77;;;2.73;;
19846;SDS011;10084;50.518;8.588;2023-03-21T08:02:55;4.93;;;2.57;;
19846;SDS011;10084;50.518;8.588;2023-03-21T08:05:22;3.50;;;2.13;;
19846;SDS011;10084;50.518;8.588;2023-03-21T08:07:50;3.93;;;2.43;;
19846;SDS011;10084;50.518;8.588;2023-03-21T08:10:17;3.87;;;2.33;;
19846;SDS011;10084;50.518;8.588;2023-03-21T08:12:43;4.03;;;2.10;;
19846;SDS011;10084;50.518;8.588;2023-03-21T08:15:10;5.93;;;2.87;;
19846;SDS011;10084;50.518;8.588;2023-03-21T08:17:37;7.80;;;2.53;;
19846;SDS011;10084;50.518;8.588;2023-03-21T08:20:05;2.93;;;2.53;;
19846;SDS011;10084;50.518;8.588;2023-03-21T08:22:34;4.23;;;2.60;;
19846;SDS011;10084;50.518;8.588;2023-03-21T08:25:04;4.80;;;2.57;;
19846;SDS011;10084;50.518;8.588;2023-03-21T08:27:32;3.70;;;2.53;;
19846;SDS011;10084;50.518;8.588;2023-03-21T08:29:58;4.00;;;2.17;;
19846;SDS011;10084;50.518;8.588;2023-03-21T08:32:25;3.67;;;2.37;;
19846;SDS011;10084;50.518;8.588;2023-03-21T08:34:59;2.60;;;2.40;;
19846;SDS011;10084;50.518;8.588;2023-03-21T08:37:26;3.00;;;2.67;;
19846;SDS011;10084;50.518;8.588;2023-03-21T08:39:53;6.23;;;2.73;;
19846;SDS011;10084;50.518;8.588;2023-03-21T08:42:19;3.50;;;2.53;;
19846;SDS011;10084;50.518;8.588;2023-03-21T08:44:46;4.00;;;2.43;;
19846;SDS011;10084;50.518;8.588;2023-03-21T08:47:12;6.63;;;3.10;;
19846;SDS011;10084;50.518;8.588;2023-03-21T08:49:38;8.03;;;2.87;;
19846;SDS011;10084;50.518;8.588;2023-03-21T08:52:05;3.20;;;2.30;;
19846;SDS011;10084;50.518;8.588;2023-03-21T08:54:33;3.30;;;2.90;;
19846;SDS011;10084;50.518;8.588;2023-03-21T08:56:59;2.97;;;2.67;;
19846;SDS011;10084;50.518;8.588;2023-03-21T08:59:25;4.57;;;2.47;;
19846;SDS011;10084;50.518;8.588;2023-03-21T09:01:52;4.80;;;2.83;;
19846;SDS011;10084;50.518;8.588;2023-03-21T09:04:20;6.20;;;3.07;;
19846;SDS011;10084;50.518;8.588;2023-03-21T09:06:50;6.10;;;3.20;;
19846;SDS011;10084;50.518;8.588;2023-03-21T09:09:16;5.10;;;2.83;;
19846;SDS011;10084;50.518;8.588;2023-03-21T09:11:42;6.50;;;3.30;;
19846;SDS011;10084;50.518;8.588;2023-03-21T09:14:08;9.80;;;3.00;;
19846;SDS011;10084;50.518;8.588;2023-03-21T09:16:34;5.93;;;3.17;;
19846;SDS011;10084;50.518;8.588;2023-03-21T09:19:00;6.20;;;2.60;;
19846;SDS011;10084;50.518;8.588;2023-03-21T09:21:28;4.83;;;2.30;;
19846;SDS011;10084;50.518;8.588;2023-03-21T09:23:55;2.70;;;2.50;;
19846;SDS011;10084;50.518;8.588;2023-03-21T09:26:24;4.20;;;2.30;;
19846;SDS011;10084;50.518;8.588;2023-03-21T09:28:52;4.23;;;2.60;;
19846;SDS011;10084;50.518;8.588;2023-03-21T09:31:18;2.37;;;2.23;;
19846;SDS011;10084;50.518;8.588;2023-03-21T09:33:50;3.60;;;3.30;;
19846;SDS011;10084;50.518;8.588;2023-03-21T09:36:17;3.90;;;3.50;;
19846;SDS011;10084;50.518;8.588;2023-03-21T09:38:49;6.20;;;3.60;;
19846;SDS011;10084;50.518;8.588;2023-03-21T09:49:24;4.20;;;3.00;;
19846;SDS011;10084;50.518;8.588;2023-03-21T09:51:55;3.30;;;3.07;;
19846;SDS011;10084;50.518;8.588;2023-03-21T09:54:29;3.67;;;3.37;;
19846;SDS011;10084;50.518;8.588;2023-03-21T09:57:04;3.07;;;2.87;;
19846;SDS011;10084;50.518;8.588;2023-03-21T09:59:39;5.57;;;3.30;;
19846;SDS011;10084;50.518;8.588;2023-03-21T10:04:47;6.13;;;2.57;;
19846;SDS011;10084;50.518;8.588;2023-03-21T10:07:13;4.53;;;2.07;;
19846;SDS011;10084;50.518;8.588;2023-03-21T10:09:42;10.17;;;2.50;;
19846;SDS011;10084;50.518;8.588;2023-03-21T10:12:13;4.23;;;2.23;;
19846;SDS011;10084;50.518;8.588;2023-03-21T10:14:43;3.33;;;2.70;;
19846;SDS011;10084;50.518;8.588;2023-03-21T10:19:41;3.53;;;2.20;;
19846;SDS011;10084;50.518;8.588;2023-03-21T10:22:10;7.10;;;2.23;;
19846;SDS011;10084;50.518;8.588;2023-03-21T10:24:40;5.90;;;2.53;;
19846;SDS011;10084;50.518;8.588;2023-03-21T10:27:17;7.87;;;2.10;;
19846;SDS011;10084;50.518;8.588;2023-03-21T10:29:43;3.20;;;2.20;;
19846;SDS011;10084;50.518;8.588;2023-03-21T10:32:11;3.90;;;3.40;;
19846;SDS011;10084;50.518;8.588;2023-03-21T10:34:42;7.13;;;2.80;;
19846;SDS011;10084;50.518;8.588;2023-03-21T10:37:12;3.77;;;2.30;;
19846;SDS011;10084;50.518;8.588;2023-03-21T10:39:39;2.87;;;2.50;;
19846;SDS011;10084;50.518;8.588;2023-03-21T10:42:20;4.13;;;3.00;;
19846;SDS011;10084;50.518;8.588;2023-03-21T10:44:50;4.93;;;2.50;;
19846;SDS011;10084;50.518;8.588;2023-03-21T10:47:34;5.67;;;2.50;;
19846;SDS011;10084;50.518;8.588;2023-03-21T10:50:04;4.10;;;2.33;;
19846;SDS011;10084;50.518;8.588;2023-03-21T10:52:31;5.73;;;3.47;;
19846;SDS011;10084;50.518;8.588;2023-03-21T10:55:07;4.53;;;3.03;;
19846;SDS011;10084;50.518;8.588;2023-03-21T10:57:34;6.27;;;3.07;;
19846;SDS011;10084;50.518;8.588;2023-03-21T11:00:02;3.70;;;3.10;;
19846;SDS011;10084;50.518;8.588;2023-03-21T11:02:42;4.73;;;2.63;;
19846;SDS011;10084;50.518;8.588;2023-03-21T11:05:16;4.53;;;3.20;;
19846;SDS011;10084;50.518;8.588;2023-03-21T11:07:59;2.40;;;2.07;;
19846;SDS011;10084;50.518;8.588;2023-03-21T11:10:37;4.33;;;2.50;;
19846;SDS011;10084;50.518;8.588;2023-03-21T11:13:23;9.87;;;2.77;;
19846;SDS011;10084;50.518;8.588;2023-03-21T11:15:52;2.57;;;2.33;;
19846;SDS011;10084;50.518;8.588;2023-03-21T11:18:19;6.70;;;2.27;;
19846;SDS011;10084;50.518;8.588;2023-03-21T11:20:49;9.80;;;2.43;;
19846;SDS011;10084;50.518;8.588;2023-03-21T11:23:17;7.30;;;2.70;;
19846;SDS011;10084;50.518;8.588;2023-03-21T11:25:45;3.10;;;2.80;;
19846;SDS011;10084;50.518;8.588;2023-03-21T11:28:20;4.77;;;2.03;;
19846;SDS011;10084;50.518;8.588;2023-03-21T11:30:51;3.50;;;2.10;;
19846;SDS011;10084;50.518;8.588;2023-03-21T11:33:19;2.93;;;2.37;;
19846;SDS011;10084;50.518;8.588;2023-03-21T11:36:00;6.57;;;2.23;;
19846;SDS011;10084;50.518;8.588;2023-03-21T11:38:33;7.13;;;2.53;;
19846;SDS011;10084;50.518;8.588;2023-03-21T11:41:02;4.13;;;2.47;;
19846;SDS011;10084;50.518;8.588;2023-03-21T11:43:29;3.07;;;2.00;;
19846;SDS011;10084;50.518;8.588;2023-03-21T11:48:37;6.93;;;2.40;;
19846;SDS011;10084;50.518;8.588;2023-03-21T11:53:56;6.97;;;2.23;;
19846;SDS011;10084;50.518;8.588;2023-03-21T11:56:26;4.40;;;2.17;;
19846;SDS011;10084;50.518;8.588;2023-03-21T12:01:36;2.37;;;2.17;;
19846;SDS011;10084;50.518;8.588;2023-03-21T12:06:55;9.63;;;2.97;;
19846;SDS011;10084;50.518;8.588;2023-03-21T12:09:33;4.07;;;2.33;;
19846;SDS011;10084;50.518;8.588;2023-03-21T12:12:13;3.77;;;2.27;;
19846;SDS011;10084;50.518;8.588;2023-03-21T12:15:00;2.83;;;2.60;;
19846;SDS011;10084;50.518;8.588;2023-03-21T12:17:34;2.03;;;1.73;;
19846;SDS011;10084;50.518;8.588;2023-03-21T12:25:18;2.50;;;2.10;;
19846;SDS011;10084;50.518;8.588;2023-03-21T12:28:00;3.40;;;2.47;;
19846;SDS011;10084;50.518;8.588;2023-03-21T12:30:42;2.50;;;2.20;;
19846;SDS011;10084;50.518;8.588;2023-03-21T12:33:22;2.83;;;2.03;;
19846;SDS011;10084;50.518;8.588;2023-03-21T12:36:06;4.93;;;2.90;;
19846;SDS011;10084;50.518;8.588;2023-03-21T12:41:24;4.90;;;2.30;;
19846;SDS011;10084;50.518;8.588;2023-03-21T12:43:53;3.17;;;2.63;;
19846;SDS011;10084;50.518;8.588;2023-03-21T12:51:38;2.60;;;2.40;;
19846;SDS011;10084;50.518;8.588;2023-03-21T12:54:09;3.47;;;2.10;;
19846;SDS011;10084;50.518;8.588;2023-03-21T12:56:57;4.93;;;2.63;;
19846;SDS011;10084;50.518;8.588;2023-03-21T12:59:51;3.97;;;2.67;;
19846;SDS011;10084;50.518;8.588;2023-03-21T13:02:27;2.90;;;2.13;;
19846;SDS011;10084;50.518;8.588;2023-03-21T13:08:00;2.07;;;1.90;;
19846;SDS011;10084;50.518;8.588;2023-03-21T13:10:29;3.93;;;3.53;;
19846;SDS011;10084;50.518;8.588;2023-03-21T13:21:23;1.97;;;1.83;;
19846;SDS011;10084;50.518;8.588;2023-03-21T13:24:03;3.93;;;1.30;;
19846;SDS011;10084;50.518;8.588;2023-03-21T13:26:42;1.27;;;1.17;;
19846;SDS011;10084;50.518;8.588;2023-03-21T13:29:18;2.00;;;1.33;;
19846;SDS011;10084;50.518;8.588;2023-03-21T13:31:47;3.97;;;1.40;;
19846;SDS011;10084;50.518;8.588;2023-03-21T13:34:15;3.43;;;1.23;;
19846;SDS011;10084;50.518;8.588;2023-03-21T13:36:43;1.97;;;1.20;;
19846;SDS011;10084;50.518;8.588;2023-03-21T13:39:44;3.63;;;1.20;;
19846;SDS011;10084;50.518;8.588;2023-03-21T13:42:10;1.90;;;1.67;;
19846;SDS011;10084;50.518;8.588;2023-03-21T13:44:45;1.77;;;0.77;;
19846;SDS011;10084;50.518;8.588;2023-03-21T13:47:32;1.17;;;0.93;;
19846;SDS011;10084;50.518;8.588;2023-03-21T13:55:41;2.97;;;0.80;;
19846;SDS011;10084;50.518;8.588;2023-03-21T13:58:22;0.83;;;0.63;;
19846;SDS011;10084;50.518;8.588;2023-03-21T14:03:40;1.90;;;0.90;;
19846;SDS011;10084;50.518;8.588;2023-03-21T14:06:07;2.57;;;0.87;;
19846;SDS011;10084;50.518;8.588;2023-03-21T14:08:34;5.37;;;0.80;;
19846;SDS011;10084;50.518;8.588;2023-03-21T14:11:03;6.00;;;0.90;;
19846;SDS011;10084;50.518;8.588;2023-03-21T14:13:31;2.30;;;0.97;;
19846;SDS011;10084;50.518;8.588;2023-03-21T14:16:06;2.37;;;0.70;;
19846;SDS011;10084;50.518;8.588;2023-03-21T14:18:44;1.93;;;0.67;;
19846;SDS011;10084;50.518;8.588;2023-03-21T14:21:18;2.27;;;0.80;;
19846;SDS011;10084;50.518;8.588;2023-03-21T14:23:46;5.23;;;1.00;;
19846;SDS011;10084;50.518;8.588;2023-03-21T14:26:12;1.03;;;0.80;;
19846;SDS011;10084;50.518;8.588;2023-03-21T14:28:45;1.00;;;0.90;;
19846;SDS011;10084;50.518;8.588;2023-03-21T14:31:15;0.83;;;0.80;;
19846;SDS011;10084;50.518;8.588;2023-03-21T14:33:54;0.90;;;0.80;;
19846;SDS011;10084;50.518;8.588;2023-03-21T14:36:31;6.33;;;1.00;;
19846;SDS011;10084;50.518;8.588;2023-03-21T14:39:04;1.07;;;0.87;;
19846;SDS011;10084;50.518;8.588;2023-03-21T14:41:31;4.67;;;0.83;;
19846;SDS011;10084;50.518;8.588;2023-03-21T14:44:11;1.47;;;1.00;;
19846;SDS011;10084;50.518;8.588;2023-03-21T14:47:16;4.93;;;0.80;;
19846;SDS011;10084;50.518;8.588;2023-03-21T14:49:43;2.07;;;1.23;;
19846;SDS011;10084;50.518;8.588;2023-03-21T14:52:13;3.97;;;1.20;;
19846;SDS011;10084;50.518;8.588;2023-03-21T14:54:45;1.87;;;1.23;;
19846;SDS011;10084;50.518;8.588;2023-03-21T14:57:13;5.87;;;1.37;;
19846;SDS011;10084;50.518;8.588;2023-03-21T14:59:40;1.53;;;1.20;;
19846;SDS011;10084;50.518;8.588;2023-03-21T15:04:41;1.37;;;1.27;;
19846;SDS011;10084;50.518;8.588;2023-03-21T15:07:21;2.80;;;1.20;;
19846;SDS011;10084;50.518;8.588;2023-03-21T15:09:53;4.57;;;1.50;;
19846;SDS011;10084;50.518;8.588;2023-03-21T15:12:20;3.77;;;1.30;;
19846;SDS011;10084;50.518;8.588;2023-03-21T15:14:46;2.73;;;1.60;;
19846;SDS011;10084;50.518;8.588;2023-03-21T15:17:12;3.47;;;1.60;;
19846;SDS011;10084;50.518;8.588;2023-03-21T15:19:38;1.90;;;1.60;;
19846;SDS011;10084;50.518;8.588;2023-03-21T15:22:23;3.30;;;1.37;;
19846;SDS011;10084;50.518;8.588;2023-03-21T15:25:06;2.93;;;1.50;;
19846;SDS011;10084;50.518;8.588;2023-03-21T15:27:38;3.10;;;1.70;;
19846;SDS011;10084;50.518;8.588;2023-03-21T15:30:06;2.17;;;1.43;;
19846;SDS011;10084;50.518;8.588;2023-03-21T15:32:42;4.07;;;1.53;;
19846;SDS011;10084;50.518;8.588;2023-03-21T15:35:12;5.40;;;1.90;;
19846;SDS011;10084;50.518;8.588;2023-03-21T15:37:41;3.07;;;1.63;;
19846;SDS011;10084;50.518;8.588;2023-03-21T15:40:24;1.90;;;1.77;;
19846;SDS011;10084;50.518;8.588;2023-03-21T15:45:44;3.37;;;1.80;;
19846;SDS011;10084;50.518;8.588;2023-03-21T15:48:20;6.43;;;2.00;;
19846;SDS011;10084;50.518;8.588;2023-03-21T15:50:54;2.00;;;1.80;;
19846;SDS011;10084;50.518;8.588;2023-03-21T15:53:23;3.17;;;2.60;;
19846;SDS011;10084;50.518;8.588;2023-03-21T15:55:50;2.40;;;2.20;;
19846;SDS011;10084;50.518;8.588;2023-03-21T15:58:26;6.43;;;2.57;;
19846;SDS011;10084;50.518;8.588;2023-03-21T16:01:07;2.63;;;2.40;;
19846;SDS011;10084;50.518;8.588;2023-03-21T16:03:40;6.97;;;2.47;;
19846;SDS011;10084;50.518;8.588;2023-03-21T16:08:37;2.97;;;2.77;;
19846;SDS011;10084;50.518;8.588;2023-03-21T16:13:46;3.57;;;3.27;;
19846;SDS011;10084;50.518;8.588;2023-03-21T16:16:20;3.43;;;3.13;;
19846;SDS011;10084;50.518;8.588;2023-03-21T16:18:47;3.43;;;3.13;;
19846;SDS011;10084;50.518;8.588;2023-03-21T16:21:15;3.47;;;3.17;;
19846;SDS011;10084;50.518;8.588;2023-03-21T16:23:46;3.80;;;3.40;;
19846;SDS011;10084;50.518;8.588;2023-03-21T16:26:13;4.03;;;3.67;;
19846;SDS011;10084;50.518;8.588;2023-03-21T16:28:41;4.77;;;3.80;;
19846;SDS011;10084;50.518;8.588;2023-03-21T16:31:17;4.13;;;3.83;;
19846;SDS011;10084;50.518;8.588;2023-03-21T16:33:45;4.27;;;3.67;;
19846;SDS011;10084;50.518;8.588;2023-03-21T16:38:44;4.00;;;3.67;;
19846;SDS011;10084;50.518;8.588;2023-03-21T16:41:12;7.33;;;4.33;;
19846;SDS011;10084;50.518;8.588;2023-03-21T16:43:39;7.40;;;3.93;;
19846;SDS011;10084;50.518;8.588;2023-03-21T16:48:47;10.53;;;4.00;;
19846;SDS011;10084;50.518;8.588;2023-03-21T16:51:16;5.10;;;4.60;;
19846;SDS011;10084;50.518;8.588;2023-03-21T16:54:01;6.17;;;4.40;;
19846;SDS011;10084;50.518;8.588;2023-03-21T16:56:37;5.27;;;4.47;;
19846;SDS011;10084;50.518;8.588;2023-03-21T16:59:05;4.53;;;4.13;;